Terminal Aerodrome Forecast
Issued by NWS St Louis, MO

Home | Current Version | Previous Version | Text Only | Print | Product List | Glossary On
Versions: 1 2 3 4 5 6 7 8 9 10 11 12 13 14 15 16 17 18 19 20 21 22 23 24 25 26
000
FTUS43 KLSX 191300 AAA
TAFCOU
TAF AMD
KCOU 191333Z 1914/2012 10005KT 2SM -RA BKN025
     FM191500 28007KT P6SM VCTS SCT050CB BKN100
     FM200000 30008KT P6SM SCT040 BKN080
     FM200600 31012G20KT P6SM VCSH BKN025=

USA.gov is the U.S. government's official web portal to all federal, state and local government web resources and services.